sensor_id;sensor_type;location;lat;lon;timestamp;pressure;altitude;pressure_sealevel;temperature;humidity
30708;BME280;17458;48.958;8.284;2023-07-20T00:00:11;100214.50;;;25.18;41.01
30708;BME280;17458;48.958;8.284;2023-07-20T00:03:17;100213.72;;;25.10;40.92
30708;BME280;17458;48.958;8.284;2023-07-20T00:06:03;100215.06;;;24.63;41.71
30708;BME280;17458;48.958;8.284;2023-07-20T00:08:48;100218.06;;;24.28;42.60
30708;BME280;17458;48.958;8.284;2023-07-20T00:11:35;100220.78;;;24.28;43.34
30708;BME280;17458;48.958;8.284;2023-07-20T00:14:20;100218.16;;;24.13;43.36
30708;BME280;17458;48.958;8.284;2023-07-20T00:17:04;100216.41;;;24.04;43.29
30708;BME280;17458;48.958;8.284;2023-07-20T00:19:49;100218.19;;;24.06;43.72
30708;BME280;17458;48.958;8.284;2023-07-20T00:22:33;100220.81;;;24.21;43.41
30708;BME280;17458;48.958;8.284;2023-07-20T00:25:18;100215.41;;;24.18;43.49
30708;BME280;17458;48.958;8.284;2023-07-20T00:28:02;100225.25;;;24.34;43.45
30708;BME280;17458;48.958;8.284;2023-07-20T00:30:46;100217.19;;;24.26;42.80
30708;BME280;17458;48.958;8.284;2023-07-20T00:33:30;100213.59;;;24.15;43.00
30708;BME280;17458;48.958;8.284;2023-07-20T00:36:14;100218.19;;;24.06;43.73
30708;BME280;17458;48.958;8.284;2023-07-20T00:39:00;100222.00;;;23.79;43.75
30708;BME280;17458;48.958;8.284;2023-07-20T00:41:44;100214.00;;;23.54;44.15
30708;BME280;17458;48.958;8.284;2023-07-20T00:44:28;100210.38;;;23.46;44.96
30708;BME280;17458;48.958;8.284;2023-07-20T00:47:13;100212.16;;;23.59;45.14
30708;BME280;17458;48.958;8.284;2023-07-20T00:49:57;100213.03;;;23.67;44.98
30708;BME280;17458;48.958;8.284;2023-07-20T00:52:42;100218.53;;;23.40;45.31
30708;BME280;17458;48.958;8.284;2023-07-20T00:55:26;100212.28;;;23.26;45.74
30708;BME280;17458;48.958;8.284;2023-07-20T00:58:12;100211.44;;;23.09;46.24
30708;BME280;17458;48.958;8.284;2023-07-20T01:00:56;100213.31;;;22.82;46.89
30708;BME280;17458;48.958;8.284;2023-07-20T01:03:40;100212.38;;;22.68;47.38
30708;BME280;17458;48.958;8.284;2023-07-20T01:06:36;100212.41;;;22.56;47.41
30708;BME280;17458;48.958;8.284;2023-07-20T01:09:36;100213.31;;;22.53;47.48
30708;BME280;17458;48.958;8.284;2023-07-20T01:12:41;100213.31;;;22.40;48.72
30708;BME280;17458;48.958;8.284;2023-07-20T01:15:26;100211.47;;;22.64;47.96
30708;BME280;17458;48.958;8.284;2023-07-20T01:18:09;100203.38;;;22.84;47.33
30708;BME280;17458;48.958;8.284;2023-07-20T01:20:59;100206.09;;;22.78;47.72
30708;BME280;17458;48.958;8.284;2023-07-20T01:24:05;100207.91;;;22.41;48.20
30708;BME280;17458;48.958;8.284;2023-07-20T01:27:02;100208.81;;;22.04;49.75
30708;BME280;17458;48.958;8.284;2023-07-20T01:33:06;100206.00;;;21.81;50.21
30708;BME280;17458;48.958;8.284;2023-07-20T01:35:56;100207.78;;;21.68;50.69
30708;BME280;17458;48.958;8.284;2023-07-20T01:38:42;100205.88;;;21.40;51.60
30708;BME280;17458;48.958;8.284;2023-07-20T01:41:25;100203.16;;;21.32;52.05
30708;BME280;17458;48.958;8.284;2023-07-20T01:44:10;100210.38;;;21.33;51.88
30708;BME280;17458;48.958;8.284;2023-07-20T01:46:55;100209.47;;;21.33;51.85
30708;BME280;17458;48.958;8.284;2023-07-20T01:49:39;100212.13;;;21.28;51.84
30708;BME280;17458;48.958;8.284;2023-07-20T01:52:24;100210.28;;;21.18;52.00
30708;BME280;17458;48.958;8.284;2023-07-20T01:55:08;100204.00;;;21.19;52.24
30708;BME280;17458;48.958;8.284;2023-07-20T01:57:53;100204.78;;;21.06;53.64
30708;BME280;17458;48.958;8.284;2023-07-20T02:00:37;100207.44;;;20.98;53.91
30708;BME280;17458;48.958;8.284;2023-07-20T02:03:22;100205.63;;;20.94;53.45
30708;BME280;17458;48.958;8.284;2023-07-20T02:06:07;100200.19;;;20.86;53.56
30708;BME280;17458;48.958;8.284;2023-07-20T02:08:51;100201.97;;;20.84;53.83
30708;BME280;17458;48.958;8.284;2023-07-20T02:11:35;100199.28;;;20.84;53.67
30708;BME280;17458;48.958;8.284;2023-07-20T02:14:19;100205.56;;;20.85;53.59
30708;BME280;17458;48.958;8.284;2023-07-20T02:17:03;100190.19;;;20.72;53.98
30708;BME280;17458;48.958;8.284;2023-07-20T02:19:52;100198.31;;;20.73;54.14
30708;BME280;17458;48.958;8.284;2023-07-20T02:22:37;100202.53;;;20.38;55.10
30708;BME280;17458;48.958;8.284;2023-07-20T02:25:21;100201.66;;;20.40;54.72
30708;BME280;17458;48.958;8.284;2023-07-20T02:28:07;100200.69;;;20.34;54.90
30708;BME280;17458;48.958;8.284;2023-07-20T02:30:52;100195.34;;;20.37;54.99
30708;BME280;17458;48.958;8.284;2023-07-20T02:33:36;100195.19;;;20.25;55.26
30708;BME280;17458;48.958;8.284;2023-07-20T02:36:20;100196.81;;;20.03;56.10
30708;BME280;17458;48.958;8.284;2023-07-20T02:39:04;100188.09;;;20.33;55.67
30708;BME280;17458;48.958;8.284;2023-07-20T02:41:48;100203.63;;;20.60;54.76
30708;BME280;17458;48.958;8.284;2023-07-20T02:44:32;100205.44;;;20.61;54.36
30708;BME280;17458;48.958;8.284;2023-07-20T02:47:15;100208.25;;;20.82;53.74
30708;BME280;17458;48.958;8.284;2023-07-20T02:50:00;100204.81;;;21.10;53.28
30708;BME280;17458;48.958;8.284;2023-07-20T02:52:44;100204.94;;;21.29;52.91
30708;BME280;17458;48.958;8.284;2023-07-20T02:55:28;100205.09;;;21.77;51.53
30708;BME280;17458;48.958;8.284;2023-07-20T02:58:12;100206.78;;;21.40;52.42
30708;BME280;17458;48.958;8.284;2023-07-20T03:00:56;100211.16;;;21.17;52.90
30708;BME280;17458;48.958;8.284;2023-07-20T03:03:41;100212.09;;;21.20;53.20
30708;BME280;17458;48.958;8.284;2023-07-20T03:06:30;100212.22;;;21.43;52.47
30708;BME280;17458;48.958;8.284;2023-07-20T03:09:14;100211.41;;;21.73;51.81
30708;BME280;17458;48.958;8.284;2023-07-20T03:11:59;100213.19;;;21.70;51.63
30708;BME280;17458;48.958;8.284;2023-07-20T03:14:44;100221.31;;;21.73;51.56
30708;BME280;17458;48.958;8.284;2023-07-20T03:17:28;100223.09;;;21.60;51.55
30708;BME280;17458;48.958;8.284;2023-07-20T03:20:12;100220.25;;;21.31;52.43
30708;BME280;17458;48.958;8.284;2023-07-20T03:22:56;100221.03;;;21.12;52.78
30708;BME280;17458;48.958;8.284;2023-07-20T03:25:40;100222.69;;;20.87;53.78
30708;BME280;17458;48.958;8.284;2023-07-20T03:28:25;100220.84;;;20.81;54.02
30708;BME280;17458;48.958;8.284;2023-07-20T03:31:09;100225.19;;;20.58;54.41
30708;BME280;17458;48.958;8.284;2023-07-20T03:33:56;100226.88;;;20.45;54.82
30708;BME280;17458;48.958;8.284;2023-07-20T03:36:40;100216.75;;;20.23;55.36
30708;BME280;17458;48.958;8.284;2023-07-20T03:39:24;100222.13;;;20.18;55.83
30708;BME280;17458;48.958;8.284;2023-07-20T03:42:08;100217.63;;;20.17;55.88
30708;BME280;17458;48.958;8.284;2023-07-20T03:44:52;100220.22;;;20.10;56.26
30708;BME280;17458;48.958;8.284;2023-07-20T03:47:36;100219.41;;;20.15;56.22
30708;BME280;17458;48.958;8.284;2023-07-20T03:50:20;100221.13;;;20.09;56.19
30708;BME280;17458;48.958;8.284;2023-07-20T03:53:04;100223.16;;;20.33;56.01
30708;BME280;17458;48.958;8.284;2023-07-20T03:55:49;100221.00;;;21.09;54.04
30708;BME280;17458;48.958;8.284;2023-07-20T03:58:33;100225.50;;;21.08;53.71
30708;BME280;17458;48.958;8.284;2023-07-20T04:01:17;100238.81;;;20.81;54.69
30708;BME280;17458;48.958;8.284;2023-07-20T04:04:04;100229.09;;;21.04;53.96
30708;BME280;17458;48.958;8.284;2023-07-20T04:06:49;100229.78;;;20.73;54.81
30708;BME280;17458;48.958;8.284;2023-07-20T04:09:33;100236.75;;;20.42;56.04
30708;BME280;17458;48.958;8.284;2023-07-20T04:12:17;100233.97;;;20.34;56.19
30708;BME280;17458;48.958;8.284;2023-07-20T04:15:01;100234.09;;;20.51;55.83
30708;BME280;17458;48.958;8.284;2023-07-20T04:17:47;100239.41;;;20.39;56.06
30708;BME280;17458;48.958;8.284;2023-07-20T04:20:31;100230.38;;;20.34;56.08
30708;BME280;17458;48.958;8.284;2023-07-20T04:23:18;100236.47;;;20.14;56.97
30708;BME280;17458;48.958;8.284;2023-07-20T04:26:02;100231.34;;;20.42;56.20
30708;BME280;17458;48.958;8.284;2023-07-20T04:28:46;100238.72;;;20.67;55.30
30708;BME280;17458;48.958;8.284;2023-07-20T04:31:39;100236.94;;;20.63;55.71
30708;BME280;17458;48.958;8.284;2023-07-20T04:34:22;100244.31;;;20.95;54.95
30708;BME280;17458;48.958;8.284;2023-07-20T04:37:07;100248.03;;;21.12;54.28
30708;BME280;17458;48.958;8.284;2023-07-20T04:39:51;100241.88;;;21.30;53.75
30708;BME280;17458;48.958;8.284;2023-07-20T04:42:35;100246.22;;;21.12;54.23
30708;BME280;17458;48.958;8.284;2023-07-20T04:45:19;100248.13;;;21.19;54.16
30708;BME280;17458;48.958;8.284;2023-07-20T04:48:08;100253.63;;;21.41;53.72
30708;BME280;17458;48.958;8.284;2023-07-20T04:50:53;100250.13;;;21.62;53.07
30708;BME280;17458;48.958;8.284;2023-07-20T04:53:37;100243.06;;;22.15;52.15
30708;BME280;17458;48.958;8.284;2023-07-20T04:56:21;100248.47;;;22.47;50.92
30708;BME280;17458;48.958;8.284;2023-07-20T04:59:07;100247.56;;;22.95;50.32
30708;BME280;17458;48.958;8.284;2023-07-20T05:01:51;100247.59;;;22.79;50.26
30708;BME280;17458;48.958;8.284;2023-07-20T05:04:36;100248.41;;;23.20;49.16
30708;BME280;17458;48.958;8.284;2023-07-20T05:07:20;100251.00;;;23.64;48.46
30708;BME280;17458;48.958;8.284;2023-07-20T05:10:04;100256.34;;;23.77;47.33
30708;BME280;17458;48.958;8.284;2023-07-20T05:12:49;100266.06;;;24.16;46.92
30708;BME280;17458;48.958;8.284;2023-07-20T05:15:33;100267.75;;;24.38;46.62
30708;BME280;17458;48.958;8.284;2023-07-20T05:18:19;100265.31;;;23.94;47.75
30708;BME280;17458;48.958;8.284;2023-07-20T05:21:05;100265.38;;;23.77;48.41
30708;BME280;17458;48.958;8.284;2023-07-20T05:23:49;100270.81;;;23.77;47.89
30708;BME280;17458;48.958;8.284;2023-07-20T05:26:33;100260.09;;;23.38;49.56
30708;BME280;17458;48.958;8.284;2023-07-20T05:29:17;100261.09;;;23.06;50.49
30708;BME280;17458;48.958;8.284;2023-07-20T05:32:01;100262.03;;;22.67;52.00
30708;BME280;17458;48.958;8.284;2023-07-20T05:34:46;100264.72;;;22.99;50.58
30708;BME280;17458;48.958;8.284;2023-07-20T05:37:30;100259.31;;;22.93;51.22
30708;BME280;17458;48.958;8.284;2023-07-20T05:40:14;100261.09;;;22.38;52.99
30708;BME280;17458;48.958;8.284;2023-07-20T05:43:02;100255.72;;;22.44;53.81
30708;BME280;17458;48.958;8.284;2023-07-20T05:45:47;100255.72;;;22.80;52.37
30708;BME280;17458;48.958;8.284;2023-07-20T05:48:31;100252.09;;;22.66;52.08
30708;BME280;17458;48.958;8.284;2023-07-20T05:51:16;100257.50;;;22.95;52.05
30708;BME280;17458;48.958;8.284;2023-07-20T05:54:00;100262.91;;;22.34;53.54
30708;BME280;17458;48.958;8.284;2023-07-20T05:56:43;100264.69;;;22.00;54.23
30708;BME280;17458;48.958;8.284;2023-07-20T05:59:28;100259.25;;;22.08;54.67
30708;BME280;17458;48.958;8.284;2023-07-20T06:02:16;100259.31;;;22.59;52.86
30708;BME280;17458;48.958;8.284;2023-07-20T06:05:00;100268.34;;;22.77;51.89
30708;BME280;17458;48.958;8.284;2023-07-20T06:07:44;100262.91;;;22.66;52.82
30708;BME280;17458;48.958;8.284;2023-07-20T06:10:28;100262.00;;;23.02;51.79
30708;BME280;17458;48.958;8.284;2023-07-20T06:13:11;100262.91;;;22.75;53.25
30708;BME280;17458;48.958;8.284;2023-07-20T06:15:55;100262.94;;;22.71;52.82
30708;BME280;17458;48.958;8.284;2023-07-20T06:18:39;100270.16;;;22.59;53.05
30708;BME280;17458;48.958;8.284;2023-07-20T06:21:23;100266.50;;;22.47;53.41
30708;BME280;17458;48.958;8.284;2023-07-20T06:24:07;100269.19;;;22.21;55.30
30708;BME280;17458;48.958;8.284;2023-07-20T06:26:51;100270.97;;;22.01;55.43
30708;BME280;17458;48.958;8.284;2023-07-20T06:29:35;100274.66;;;22.44;54.14
30708;BME280;17458;48.958;8.284;2023-07-20T06:32:19;100280.97;;;22.97;53.52
30708;BME280;17458;48.958;8.284;2023-07-20T06:35:03;100272.81;;;23.16;51.92
30708;BME280;17458;48.958;8.284;2023-07-20T06:37:47;100272.75;;;23.40;51.33
30708;BME280;17458;48.958;8.284;2023-07-20T06:40:31;100280.84;;;23.48;52.29
30708;BME280;17458;48.958;8.284;2023-07-20T06:43:15;100279.00;;;23.65;51.88
30708;BME280;17458;48.958;8.284;2023-07-20T06:46:00;100281.75;;;23.50;52.27
30708;BME280;17458;48.958;8.284;2023-07-20T06:48:44;100281.72;;;23.62;51.20
30708;BME280;17458;48.958;8.284;2023-07-20T06:51:28;100272.72;;;23.45;52.88
30708;BME280;17458;48.958;8.284;2023-07-20T06:54:11;100272.63;;;23.77;51.52
30708;BME280;17458;48.958;8.284;2023-07-20T06:56:56;100280.81;;;23.58;52.30
30708;BME280;17458;48.958;8.284;2023-07-20T06:59:40;100273.75;;;22.39;55.16
30708;BME280;17458;48.958;8.284;2023-07-20T07:02:24;100271.94;;;22.62;54.92
30708;BME280;17458;48.958;8.284;2023-07-20T07:05:08;100266.50;;;22.76;54.83
30708;BME280;17458;48.958;8.284;2023-07-20T07:07:52;100272.78;;;23.25;54.53
30708;BME280;17458;48.958;8.284;2023-07-20T07:10:36;100268.84;;;24.02;52.04
30708;BME280;17458;48.958;8.284;2023-07-20T07:13:20;100267.91;;;24.12;53.67
30708;BME280;17458;48.958;8.284;2023-07-20T07:16:04;100270.41;;;24.47;50.23
30708;BME280;17458;48.958;8.284;2023-07-20T07:18:50;100267.84;;;24.18;50.99
30708;BME280;17458;48.958;8.284;2023-07-20T07:21:35;100280.44;;;24.34;50.37
30708;BME280;17458;48.958;8.284;2023-07-20T07:24:19;100278.72;;;24.15;51.04
30708;BME280;17458;48.958;8.284;2023-07-20T07:27:03;100272.66;;;23.71;51.72
30708;BME280;17458;48.958;8.284;2023-07-20T07:29:48;100275.09;;;24.16;51.97
30708;BME280;17458;48.958;8.284;2023-07-20T07:32:32;100282.25;;;24.35;50.50
30708;BME280;17458;48.958;8.284;2023-07-20T07:35:16;100280.00;;;24.89;49.00
30708;BME280;17458;48.958;8.284;2023-07-20T07:38:00;100283.78;;;25.63;47.36
30708;BME280;17458;48.958;8.284;2023-07-20T07:40:44;100281.88;;;24.83;49.96
30708;BME280;17458;48.958;8.284;2023-07-20T07:43:28;100286.22;;;25.05;49.43
30708;BME280;17458;48.958;8.284;2023-07-20T07:46:12;100284.09;;;25.34;48.13
30708;BME280;17458;48.958;8.284;2023-07-20T07:48:57;100284.84;;;25.49;47.91
30708;BME280;17458;48.958;8.284;2023-07-20T07:51:41;100285.06;;;25.29;47.66
30708;BME280;17458;48.958;8.284;2023-07-20T07:54:25;100285.72;;;25.52;46.38
30708;BME280;17458;48.958;8.284;2023-07-20T07:57:09;100281.22;;;25.48;46.43
30708;BME280;17458;48.958;8.284;2023-07-20T07:59:53;100277.19;;;25.00;47.64
30708;BME280;17458;48.958;8.284;2023-07-20T08:02:37;100283.13;;;25.40;48.67
30708;BME280;17458;48.958;8.284;2023-07-20T08:05:21;100274.97;;;25.40;47.12
30708;BME280;17458;48.958;8.284;2023-07-20T08:08:05;100277.75;;;25.34;46.69
30708;BME280;17458;48.958;8.284;2023-07-20T08:10:50;100276.47;;;25.68;48.85
30708;BME280;17458;48.958;8.284;2023-07-20T08:13:36;100280.13;;;25.66;47.54
30708;BME280;17458;48.958;8.284;2023-07-20T08:16:20;100283.34;;;25.97;47.82
30708;BME280;17458;48.958;8.284;2023-07-20T08:19:04;100282.56;;;25.87;46.93
30708;BME280;17458;48.958;8.284;2023-07-20T08:21:48;100275.59;;;26.32;46.91
30708;BME280;17458;48.958;8.284;2023-07-20T08:24:32;100280.13;;;26.33;44.53
30708;BME280;17458;48.958;8.284;2023-07-20T08:27:17;100281.06;;;25.63;46.30
30708;BME280;17458;48.958;8.284;2023-07-20T08:30:01;100283.19;;;25.34;45.79
30708;BME280;17458;48.958;8.284;2023-07-20T08:32:45;100288.50;;;26.17;45.12
30708;BME280;17458;48.958;8.284;2023-07-20T08:35:29;100279.72;;;26.58;45.79
30708;BME280;17458;48.958;8.284;2023-07-20T08:38:13;100278.25;;;26.91;43.52
30708;BME280;17458;48.958;8.284;2023-07-20T08:40:57;100282.63;;;27.01;44.31
30708;BME280;17458;48.958;8.284;2023-07-20T08:43:45;100292.56;;;26.50;42.77
30708;BME280;17458;48.958;8.284;2023-07-20T08:46:31;100284.69;;;25.62;43.76
30708;BME280;17458;48.958;8.284;2023-07-20T08:49:17;100284.78;;;25.53;44.35
30708;BME280;17458;48.958;8.284;2023-07-20T08:52:01;100280.56;;;26.00;43.62
30708;BME280;17458;48.958;8.284;2023-07-20T08:54:48;100283.47;;;25.86;42.60
30708;BME280;17458;48.958;8.284;2023-07-20T08:57:33;100273.66;;;25.76;44.11
30708;BME280;17458;48.958;8.284;2023-07-20T09:00:19;100279.41;;;26.18;44.37
30708;BME280;17458;48.958;8.284;2023-07-20T09:03:04;100272.09;;;26.21;42.32
30708;BME280;17458;48.958;8.284;2023-07-20T09:05:48;100270.81;;;27.02;41.39
30708;BME280;17458;48.958;8.284;2023-07-20T09:08:32;100281.06;;;26.84;42.36
30708;BME280;17458;48.958;8.284;2023-07-20T09:11:17;100276.16;;;27.54;39.39
30708;BME280;17458;48.958;8.284;2023-07-20T09:14:05;100282.50;;;27.56;40.67
30708;BME280;17458;48.958;8.284;2023-07-20T09:16:52;100277.25;;;27.45;39.87
30708;BME280;17458;48.958;8.284;2023-07-20T09:19:36;100264.09;;;27.66;40.22
30708;BME280;17458;48.958;8.284;2023-07-20T09:22:20;100273.16;;;27.68;40.07
30708;BME280;17458;48.958;8.284;2023-07-20T09:25:15;100266.06;;;27.61;40.33
30708;BME280;17458;48.958;8.284;2023-07-20T09:28:02;100265.00;;;27.66;39.19
30708;BME280;17458;48.958;8.284;2023-07-20T09:30:46;100273.53;;;27.49;38.25
30708;BME280;17458;48.958;8.284;2023-07-20T09:33:30;100276.38;;;27.88;39.12
30708;BME280;17458;48.958;8.284;2023-07-20T09:36:14;100276.63;;;28.17;38.50
30708;BME280;17458;48.958;8.284;2023-07-20T09:38:59;100273.06;;;28.52;38.20
30708;BME280;17458;48.958;8.284;2023-07-20T09:41:43;100267.22;;;28.68;37.47
30708;BME280;17458;48.958;8.284;2023-07-20T09:44:27;100263.13;;;28.10;38.38
30708;BME280;17458;48.958;8.284;2023-07-20T09:47:12;100271.59;;;27.98;39.88
30708;BME280;17458;48.958;8.284;2023-07-20T09:49:59;100256.81;;;28.08;37.08
30708;BME280;17458;48.958;8.284;2023-07-20T09:52:47;100253.38;;;27.58;40.14
30708;BME280;17458;48.958;8.284;2023-07-20T09:55:34;100256.06;;;28.01;37.99
30708;BME280;17458;48.958;8.284;2023-07-20T09:58:18;100244.31;;;27.98;38.04
30708;BME280;17458;48.958;8.284;2023-07-20T10:01:04;100249.31;;;28.56;38.68
30708;BME280;17458;48.958;8.284;2023-07-20T10:03:53;100248.44;;;28.54;37.59
30708;BME280;17458;48.958;8.284;2023-07-20T10:06:41;100249.88;;;28.33;38.36
30708;BME280;17458;48.958;8.284;2023-07-20T10:09:26;100246.00;;;28.79;34.84
30708;BME280;17458;48.958;8.284;2023-07-20T10:12:11;100242.06;;;28.55;36.04
30708;BME280;17458;48.958;8.284;2023-07-20T10:17:56;100248.34;;;29.28;36.24
30708;BME280;17458;48.958;8.284;2023-07-20T10:20:41;100221.28;;;28.49;36.06
30708;BME280;17458;48.958;8.284;2023-07-20T10:23:26;100235.47;;;29.32;36.03
30708;BME280;17458;48.958;8.284;2023-07-20T10:26:13;100228.00;;;29.38;36.49
30708;BME280;17458;48.958;8.284;2023-07-20T10:28:58;100224.31;;;29.70;34.46
30708;BME280;17458;48.958;8.284;2023-07-20T10:31:44;100231.63;;;29.70;33.16
30708;BME280;17458;48.958;8.284;2023-07-20T10:34:28;100224.56;;;28.98;32.85
30708;BME280;17458;48.958;8.284;2023-07-20T10:40:38;100210.81;;;29.33;33.03
30708;BME280;17458;48.958;8.284;2023-07-20T10:43:23;100210.19;;;28.91;34.71
30708;BME280;17458;48.958;8.284;2023-07-20T10:46:07;100203.44;;;29.35;34.10
30708;BME280;17458;48.958;8.284;2023-07-20T10:49:02;100207.53;;;29.51;33.13
30708;BME280;17458;48.958;8.284;2023-07-20T10:51:59;100201.47;;;29.42;34.76
30708;BME280;17458;48.958;8.284;2023-07-20T10:54:47;100197.38;;;29.24;33.59
30708;BME280;17458;48.958;8.284;2023-07-20T10:57:32;100204.53;;;29.30;32.13
30708;BME280;17458;48.958;8.284;2023-07-20T11:00:19;100196.59;;;29.81;32.71
30708;BME280;17458;48.958;8.284;2023-07-20T11:03:04;100201.91;;;29.87;32.92
30708;BME280;17458;48.958;8.284;2023-07-20T11:05:48;100184.72;;;29.20;31.54
30708;BME280;17458;48.958;8.284;2023-07-20T11:08:40;100191.91;;;29.24;34.02
30708;BME280;17458;48.958;8.284;2023-07-20T11:11:30;100186.44;;;29.56;33.58
30708;BME280;17458;48.958;8.284;2023-07-20T11:14:22;100191.66;;;29.64;34.59
30708;BME280;17458;48.958;8.284;2023-07-20T11:17:14;100182.22;;;29.45;32.75
30708;BME280;17458;48.958;8.284;2023-07-20T11:20:01;100176.41;;;29.55;30.78
30708;BME280;17458;48.958;8.284;2023-07-20T11:22:45;100171.88;;;29.23;31.59
30708;BME280;17458;48.958;8.284;2023-07-20T11:25:38;100178.53;;;29.46;33.34
30708;BME280;17458;48.958;8.284;2023-07-20T11:28:22;100175.53;;;29.22;32.92
30708;BME280;17458;48.958;8.284;2023-07-20T11:31:06;100173.00;;;29.16;32.30
30708;BME280;17458;48.958;8.284;2023-07-20T11:33:50;100161.72;;;29.59;31.03
30708;BME280;17458;48.958;8.284;2023-07-20T11:36:34;100159.56;;;28.75;33.62
30708;BME280;17458;48.958;8.284;2023-07-20T11:39:19;100159.81;;;29.00;31.88
30708;BME280;17458;48.958;8.284;2023-07-20T11:42:05;100156.63;;;29.47;30.77
30708;BME280;17458;48.958;8.284;2023-07-20T11:44:51;100143.06;;;29.43;30.70
30708;BME280;17458;48.958;8.284;2023-07-20T11:47:40;100141.19;;;29.45;30.54
30708;BME280;17458;48.958;8.284;2023-07-20T11:50:25;100152.31;;;29.37;30.69
30708;BME280;17458;48.958;8.284;2023-07-20T11:53:09;100148.44;;;29.46;32.90
30708;BME280;17458;48.958;8.284;2023-07-20T11:55:54;100155.94;;;29.98;31.26
30708;BME280;17458;48.958;8.284;2023-07-20T11:58:44;100157.13;;;29.89;30.58
30708;BME280;17458;48.958;8.284;2023-07-20T12:01:29;100145.47;;;30.11;29.50
30708;BME280;17458;48.958;8.284;2023-07-20T12:04:16;100140.59;;;29.63;29.79
30708;BME280;17458;48.958;8.284;2023-07-20T12:07:01;100132.38;;;29.34;31.69
30708;BME280;17458;48.958;8.284;2023-07-20T12:09:45;100132.06;;;29.13;31.14
30708;BME280;17458;48.958;8.284;2023-07-20T12:12:46;100129.28;;;29.15;30.62
30708;BME280;17458;48.958;8.284;2023-07-20T12:15:30;100128.97;;;29.56;31.92
30708;BME280;17458;48.958;8.284;2023-07-20T12:18:15;100119.50;;;29.67;31.01
30708;BME280;17458;48.958;8.284;2023-07-20T12:20:59;100119.66;;;29.90;29.62
30708;BME280;17458;48.958;8.284;2023-07-20T12:23:45;100124.44;;;29.83;30.41
30708;BME280;17458;48.958;8.284;2023-07-20T12:26:30;100119.34;;;30.01;29.25
30708;BME280;17458;48.958;8.284;2023-07-20T12:29:14;100113.22;;;30.19;29.38
30708;BME280;17458;48.958;8.284;2023-07-20T12:31:58;100115.97;;;29.63;32.08
30708;BME280;17458;48.958;8.284;2023-07-20T12:34:41;100113.81;;;29.74;29.61
30708;BME280;17458;48.958;8.284;2023-07-20T12:37:26;100110.28;;;29.41;29.64
30708;BME280;17458;48.958;8.284;2023-07-20T12:40:11;100105.63;;;29.45;29.27
30708;BME280;17458;48.958;8.284;2023-07-20T12:42:55;100108.66;;;30.19;31.65
30708;BME280;17458;48.958;8.284;2023-07-20T12:45:39;100105.56;;;30.04;28.08
30708;BME280;17458;48.958;8.284;2023-07-20T12:48:23;100096.59;;;30.25;29.17
30708;BME280;17458;48.958;8.284;2023-07-20T12:51:08;100100.34;;;29.94;32.12
30708;BME280;17458;48.958;8.284;2023-07-20T12:53:53;100101.78;;;29.78;30.80
30708;BME280;17458;48.958;8.284;2023-07-20T12:56:37;100099.84;;;29.54;31.33
30708;BME280;17458;48.958;8.284;2023-07-20T12:59:21;100098.13;;;30.07;31.35
30708;BME280;17458;48.958;8.284;2023-07-20T13:02:05;100099.38;;;29.97;27.98
30708;BME280;17458;48.958;8.284;2023-07-20T13:04:50;100091.03;;;30.28;27.68
30708;BME280;17458;48.958;8.284;2023-07-20T13:07:36;100083.75;;;30.52;30.83
30708;BME280;17458;48.958;8.284;2023-07-20T13:10:20;100084.38;;;30.09;27.26
30708;BME280;17458;48.958;8.284;2023-07-20T13:13:05;100086.16;;;29.82;28.31
30708;BME280;17458;48.958;8.284;2023-07-20T13:15:49;100083.56;;;29.49;28.20
30708;BME280;17458;48.958;8.284;2023-07-20T13:18:34;100079.66;;;28.98;28.27
30708;BME280;17458;48.958;8.284;2023-07-20T13:21:18;100085.03;;;29.01;28.94
30708;BME280;17458;48.958;8.284;2023-07-20T13:24:06;100085.59;;;28.81;29.02
30708;BME280;17458;48.958;8.284;2023-07-20T13:26:50;100068.56;;;29.33;26.98
30708;BME280;17458;48.958;8.284;2023-07-20T13:29:34;100064.69;;;29.96;26.76
30708;BME280;17458;48.958;8.284;2023-07-20T13:32:18;100066.06;;;29.55;26.64
30708;BME280;17458;48.958;8.284;2023-07-20T13:35:02;100067.09;;;30.07;28.96
30708;BME280;17458;48.958;8.284;2023-07-20T13:37:46;100056.03;;;30.10;29.99
30708;BME280;17458;48.958;8.284;2023-07-20T13:40:30;100061.75;;;30.04;28.93
30708;BME280;17458;48.958;8.284;2023-07-20T13:43:15;100057.34;;;29.98;29.23
30708;BME280;17458;48.958;8.284;2023-07-20T13:45:59;100050.19;;;30.20;26.04
30708;BME280;17458;48.958;8.284;2023-07-20T13:48:43;100052.78;;;30.25;28.80
30708;BME280;17458;48.958;8.284;2023-07-20T13:51:27;100051.91;;;30.23;28.96
30708;BME280;17458;48.958;8.284;2023-07-20T13:54:11;100045.56;;;29.94;28.69
30708;BME280;17458;48.958;8.284;2023-07-20T13:56:55;100053.72;;;29.98;29.48
30708;BME280;17458;48.958;8.284;2023-07-20T13:59:39;100051.41;;;30.63;28.37
30708;BME280;17458;48.958;8.284;2023-07-20T14:02:23;100038.06;;;30.52;28.85
30708;BME280;17458;48.958;8.284;2023-07-20T14:05:07;100044.25;;;30.84;27.07
30708;BME280;17458;48.958;8.284;2023-07-20T14:07:53;100034.84;;;30.66;26.31
30708;BME280;17458;48.958;8.284;2023-07-20T14:10:37;100033.69;;;30.47;28.75
30708;BME280;17458;48.958;8.284;2023-07-20T14:13:22;100026.91;;;30.83;27.11
30708;BME280;17458;48.958;8.284;2023-07-20T14:16:06;100028.81;;;30.31;27.43
30708;BME280;17458;48.958;8.284;2023-07-20T14:18:50;100027.00;;;30.80;26.39
30708;BME280;17458;48.958;8.284;2023-07-20T14:21:34;100025.84;;;30.62;26.12
30708;BME280;17458;48.958;8.284;2023-07-20T14:24:18;100028.78;;;29.79;26.13
30708;BME280;17458;48.958;8.284;2023-07-20T14:27:02;100019.47;;;30.62;26.95
30708;BME280;17458;48.958;8.284;2023-07-20T14:29:47;100022.34;;;31.06;27.95
30708;BME280;17458;48.958;8.284;2023-07-20T14:32:31;100022.84;;;30.93;27.06